Time;durP1;ratioP1;P1;durP2;ratioP2;P2;SDS_P1;SDS_P2;PMS_P1;PMS_P2;Temp;Humidity;BMP_temperature;BMP_pressure;BME280_temperature;BME280_humidity;BME280_pressure;Samples;Min_cycle;Max_cycle;Signal;HPM_P1;HPM_P2
2023/08/05 00:01:48;;;;;;;5.13;3.63;;;;;;;-145.18;100.00;46650.63;4937136;29;20487;-63
2023/08/05 00:04:13;;;;;;;5.47;3.93;;;;;;;-145.18;100.00;46652.59;4936944;29;20023;-63
2023/08/05 00:06:39;;;;;;;6.83;3.93;;;;;;;-145.18;100.00;46652.59;4936993;29;20107;-63
2023/08/05 00:09:04;;;;;;;9.27;4.23;;;;;;;-145.18;100.00;46654.53;4936345;29;20083;-63
2023/08/05 00:11:30;;;;;;;6.47;4.10;;;;;;;-145.18;100.00;46652.59;4936961;29;20078;-63
2023/08/05 00:13:55;;;;;;;6.73;3.70;;;;;;;-145.18;100.00;46654.53;4935240;29;20487;-63
2023/08/05 00:16:20;;;;;;;8.70;4.40;;;;;;;-145.18;100.00;46650.63;4935365;29;20027;-63
2023/08/05 00:18:46;;;;;;;6.57;4.23;;;;;;;-145.18;100.00;46650.63;4935056;29;20035;-63
2023/08/05 00:21:11;;;;;;;6.87;4.13;;;;;;;-145.18;100.00;46648.69;4935470;29;20079;-63
2023/08/05 00:23:37;;;;;;;9.40;4.47;;;;;;;-145.18;100.00;46652.59;4936570;29;20229;-63
2023/08/05 00:26:02;;;;;;;5.17;3.97;;;;;;;-145.18;100.00;46656.50;4936835;29;20032;-63
2023/08/05 00:28:27;;;;;;;4.87;3.53;;;;;;;-145.18;100.00;46644.78;4936578;29;20450;-63
2023/08/05 00:30:53;;;;;;;5.93;4.00;;;;;;;-145.18;100.00;46648.69;4936469;29;20051;-63
2023/08/05 00:33:18;;;;;;;5.30;3.77;;;;;;;-145.18;100.00;46648.69;4936344;29;20039;-63
2023/08/05 00:35:43;;;;;;;9.33;4.57;;;;;;;-145.18;100.00;46646.72;4936332;29;20558;-63
2023/08/05 00:38:09;;;;;;;6.87;4.20;;;;;;;-145.18;100.00;46646.72;4936029;29;20032;-63
2023/08/05 00:40:34;;;;;;;6.60;4.07;;;;;;;-145.18;100.00;46646.72;4935817;29;20127;-63
2023/08/05 00:42:59;;;;;;;8.63;4.30;;;;;;;-145.18;100.00;46642.81;4934645;29;20585;-64
2023/08/05 00:45:25;;;;;;;8.50;4.27;;;;;;;-145.18;100.00;46644.78;4934748;29;20039;-63
2023/08/05 00:47:52;;;;;;;6.37;3.90;;;;;;;-145.18;100.00;46642.81;4936040;29;20114;-63
2023/08/05 00:50:18;;;;;;;6.63;4.23;;;;;;;-145.18;100.00;46642.81;4936158;29;20403;-64
2023/08/05 00:52:43;;;;;;;8.60;4.87;;;;;;;-145.18;100.00;46640.88;4935820;29;20483;-63
2023/08/05 00:55:09;;;;;;;8.13;4.60;;;;;;;-145.18;100.00;46644.78;4935695;29;20042;-63
2023/08/05 00:57:35;;;;;;;9.40;4.80;;;;;;;-145.18;100.00;46644.78;4935868;29;20032;-63
2023/08/05 01:00:01;;;;;;;6.67;4.80;;;;;;;-145.18;100.00;46646.72;4935514;29;20024;-63
2023/08/05 01:02:26;;;;;;;7.87;4.73;;;;;;;-145.18;100.00;46644.78;4935632;29;20393;-63
2023/08/05 01:04:51;;;;;;;7.23;4.73;;;;;;;-145.18;100.00;46646.72;4935380;29;20027;-63
2023/08/05 01:07:19;;;;;;;9.00;4.57;;;;;;;-145.18;100.00;46644.78;4934381;29;20031;-63
2023/08/05 01:09:44;;;;;;;13.23;4.33;;;;;;;-145.18;100.00;46646.72;4935522;29;20480;-63
2023/08/05 01:12:10;;;;;;;8.03;4.50;;;;;;;-145.18;100.00;46648.69;4935820;29;20024;-63
2023/08/05 01:14:35;;;;;;;6.27;4.37;;;;;;;-145.18;100.00;46644.78;4934100;29;20059;-63
2023/08/05 01:17:02;;;;;;;7.90;4.37;;;;;;;-145.18;100.00;46648.69;4935417;29;20031;-63
2023/08/05 01:19:29;;;;;;;10.23;5.07;;;;;;;-145.18;100.00;46646.72;4934459;29;20028;-63
2023/08/05 01:22:23;;;;;;;6.57;4.37;;;;;;;-145.18;100.00;46648.69;4935814;29;20028;-63
2023/08/05 01:25:08;;;;;;;11.97;5.57;;;;;;;-145.18;100.00;46648.69;4926569;29;20039;-63
2023/08/05 01:27:34;;;;;;;8.23;4.97;;;;;;;-145.18;100.00;46640.88;4935134;29;20031;-63
2023/08/05 01:30:00;;;;;;;8.23;4.73;;;;;;;-145.18;100.00;46644.78;4934208;29;20028;-63
2023/08/05 01:32:27;;;;;;;7.00;4.40;;;;;;;-145.18;100.00;46642.81;4935402;29;20040;-63
2023/08/05 01:34:53;;;;;;;7.87;4.20;;;;;;;-145.18;100.00;46642.81;4935635;29;20043;-67
2023/08/05 01:37:18;;;;;;;5.47;3.43;;;;;;;-145.18;100.00;46644.78;4935356;29;20050;-63
2023/08/05 01:39:44;;;;;;;6.73;3.80;;;;;;;-145.18;100.00;46646.72;4934600;29;20134;-63
2023/08/05 01:42:09;;;;;;;6.87;3.70;;;;;;;-145.18;100.00;46640.88;4935161;29;20028;-63
2023/08/05 01:44:35;;;;;;;6.30;3.50;;;;;;;-145.18;100.00;46644.78;4935129;29;20198;-64
2023/08/05 01:47:00;;;;;;;7.33;3.73;;;;;;;-145.18;100.00;46640.88;4935560;29;20038;-63
2023/08/05 01:49:25;;;;;;;8.93;3.13;;;;;;;-145.18;100.00;46642.81;4935529;29;20091;-63
2023/08/05 01:51:51;;;;;;;6.47;2.37;;;;;;;-145.18;100.00;46640.88;4934477;29;20036;-63
2023/08/05 01:54:16;;;;;;;4.77;3.40;;;;;;;-145.18;100.00;46638.91;4935391;29;20166;-63
2023/08/05 01:56:42;;;;;;;4.87;3.33;;;;;;;-145.18;100.00;46636.94;4935304;29;20028;-62
2023/08/05 01:59:07;;;;;;;5.43;3.83;;;;;;;-145.18;100.00;46636.94;4934979;29;20050;-63
2023/08/05 02:01:40;;;;;;;7.43;3.73;;;;;;;-145.18;100.00;46642.81;4933336;29;20182;-64
2023/08/05 02:04:06;;;;;;;7.37;3.50;;;;;;;-145.18;100.00;46635.00;4934749;29;20031;-63
2023/08/05 02:06:31;;;;;;;6.60;3.83;;;;;;;-145.18;100.00;46636.94;4922734;29;20054;-63
2023/08/05 02:08:56;;;;;;;4.77;3.10;;;;;;;-145.18;100.00;46636.94;4934646;29;20027;-63
2023/08/05 02:11:22;;;;;;;7.77;3.83;;;;;;;-145.18;100.00;46633.06;4934439;29;20063;-63
2023/08/05 02:13:47;;;;;;;8.33;4.50;;;;;;;-145.18;100.00;46635.00;4934669;29;20046;-63
2023/08/05 02:16:12;;;;;;;6.33;4.03;;;;;;;-145.18;100.00;46638.91;4934476;29;20072;-63
2023/08/05 02:18:38;;;;;;;8.37;3.90;;;;;;;-145.18;100.00;46638.91;4935458;29;20039;-63
2023/08/05 02:21:03;;;;;;;8.33;3.47;;;;;;;-145.18;100.00;46636.94;4952320;29;20167;-63
2023/08/05 02:23:29;;;;;;;5.50;3.80;;;;;;;-145.18;100.00;46635.00;4934627;29;20082;-63
2023/08/05 02:25:54;;;;;;;10.37;4.30;;;;;;;-145.18;100.00;46640.88;4934776;29;20399;-63
2023/08/05 02:28:20;;;;;;;6.93;4.37;;;;;;;-145.18;100.00;46638.91;4946594;29;20546;-63
2023/08/05 02:30:45;;;;;;;6.97;3.90;;;;;;;-145.18;100.00;46638.91;4934491;29;20043;-63
2023/08/05 02:33:10;;;;;;;7.13;3.67;;;;;;;-145.18;100.00;46636.94;4934559;29;20028;-63
2023/08/05 02:35:36;;;;;;;8.23;4.50;;;;;;;-145.18;100.00;46636.94;4934660;29;20028;-63
2023/08/05 02:38:01;;;;;;;9.70;4.93;;;;;;;-145.18;100.00;46636.94;4933062;29;20027;-63
2023/08/05 02:40:26;;;;;;;8.37;4.67;;;;;;;-145.18;100.00;46640.88;4934319;29;20060;-63
2023/08/05 02:42:52;;;;;;;8.83;4.87;;;;;;;-145.18;100.00;46636.94;4934650;29;20475;-63
2023/08/05 02:45:17;;;;;;;8.10;4.27;;;;;;;-145.18;100.00;46636.94;4934432;29;20023;-63
2023/08/05 02:47:42;;;;;;;6.97;4.97;;;;;;;-145.18;100.00;46635.00;4934290;29;20032;-64
2023/08/05 02:50:09;;;;;;;8.63;4.83;;;;;;;-145.18;100.00;46636.94;4934716;29;20035;-63
2023/08/05 02:52:35;;;;;;;10.97;4.70;;;;;;;-145.18;100.00;46642.81;4942609;29;20032;-63
2023/08/05 02:55:00;;;;;;;7.73;4.40;;;;;;;-145.18;100.00;46638.91;4936371;29;20030;-64
2023/08/05 02:57:25;;;;;;;9.90;5.47;;;;;;;-145.18;100.00;46638.91;4934380;29;20041;-63
2023/08/05 02:59:51;;;;;;;9.77;4.50;;;;;;;-145.18;100.00;46638.91;4934356;29;20161;-63
2023/08/05 03:02:16;;;;;;;7.03;4.30;;;;;;;-145.18;100.00;46638.91;4934051;29;20435;-63
2023/08/05 03:04:41;;;;;;;7.20;4.43;;;;;;;-145.18;100.00;46640.88;4935128;29;20071;-63
2023/08/05 03:07:07;;;;;;;6.80;4.43;;;;;;;-145.18;100.00;46636.94;4938111;29;20040;-63
2023/08/05 03:09:32;;;;;;;6.27;4.37;;;;;;;-145.18;100.00;46638.91;4936371;29;20430;-63
2023/08/05 03:11:58;;;;;;;8.47;5.10;;;;;;;-145.18;100.00;46635.00;4937477;29;20078;-63
2023/08/05 03:14:23;;;;;;;6.87;4.23;;;;;;;-145.18;100.00;46642.81;4934025;29;20035;-63
2023/08/05 03:16:48;;;;;;;8.27;5.10;;;;;;;-145.18;100.00;46638.91;4927662;29;20492;-63
2023/08/05 03:19:14;;;;;;;7.67;4.80;;;;;;;-145.18;100.00;46636.94;4937824;29;20036;-63
2023/08/05 03:21:39;;;;;;;11.93;4.83;;;;;;;-145.18;100.00;46642.81;4936304;29;20047;-63
2023/08/05 03:24:04;;;;;;;7.20;4.30;;;;;;;-145.18;100.00;46644.78;4937728;29;20110;-63
2023/08/05 03:26:30;;;;;;;6.43;4.37;;;;;;;-145.18;100.00;46636.94;4937768;29;20050;-63
2023/08/05 03:28:55;;;;;;;8.70;4.97;;;;;;;-145.18;100.00;46640.88;4937280;29;20094;-63
2023/08/05 03:31:21;;;;;;;7.07;4.50;;;;;;;-145.18;100.00;46635.00;4937805;29;20028;-63
2023/08/05 03:33:46;;;;;;;11.70;6.57;;;;;;;-145.18;100.00;46636.94;4937226;29;20530;-63
2023/08/05 03:36:11;;;;;;;9.20;5.40;;;;;;;-145.18;100.00;46633.06;4937262;29;20043;-63
2023/08/05 03:38:37;;;;;;;7.20;4.70;;;;;;;-145.18;100.00;46635.00;4937069;29;20047;-63
2023/08/05 03:41:05;;;;;;;7.63;4.80;;;;;;;-145.18;100.00;46636.94;4937713;29;20088;-63
2023/08/05 03:43:30;;;;;;;10.03;5.57;;;;;;;-145.18;100.00;46636.94;4937448;29;20027;-63
2023/08/05 03:45:56;;;;;;;11.93;6.03;;;;;;;-145.18;100.00;46638.91;4937443;29;20498;-63
2023/08/05 03:48:21;;;;;;;8.67;5.83;;;;;;;-145.18;100.00;46635.00;4936666;29;20023;-63
2023/08/05 03:50:46;;;;;;;9.40;6.00;;;;;;;-145.18;100.00;46638.91;4937490;29;20070;-63
2023/08/05 03:53:12;;;;;;;11.80;6.13;;;;;;;-145.18;100.00;46633.06;4937265;29;20496;-63
2023/08/05 03:55:37;;;;;;;9.50;6.23;;;;;;;-145.18;100.00;46635.00;4935870;29;20376;-63
2023/08/05 03:58:03;;;;;;;11.70;6.30;;;;;;;-145.18;100.00;46642.81;4936715;29;20487;-63
2023/08/05 04:00:29;;;;;;;10.80;6.33;;;;;;;-145.18;100.00;46636.94;4937297;29;20065;-64
2023/08/05 04:02:54;;;;;;;8.93;6.30;;;;;;;-145.18;100.00;46633.06;4936943;29;20514;-63
2023/08/05 04:05:19;;;;;;;9.83;6.27;;;;;;;-145.18;100.00;46635.00;4937269;29;20111;-64
2023/08/05 04:07:46;;;;;;;9.30;5.70;;;;;;;-145.18;100.00;46635.00;4936722;29;20035;-63
2023/08/05 04:10:13;;;;;;;10.50;6.00;;;;;;;-145.18;100.00;46636.94;4935613;29;20841;-63
2023/08/05 04:12:38;;;;;;;9.37;5.83;;;;;;;-145.18;100.00;46640.88;4935401;29;20067;-63
2023/08/05 04:15:06;;;;;;;8.23;5.60;;;;;;;-145.18;100.00;46635.00;4936320;29;20431;-63
2023/08/05 04:17:31;;;;;;;11.53;6.47;;;;;;;-145.18;100.00;46638.91;4935583;29;20042;-63
2023/08/05 04:19:57;;;;;;;9.40;5.80;;;;;;;-145.18;100.00;46636.94;4936606;29;20036;-63
2023/08/05 04:22:25;;;;;;;11.20;6.90;;;;;;;-145.18;100.00;46638.91;4936725;29;20039;-63
2023/08/05 04:24:51;;;;;;;12.13;6.70;;;;;;;-145.18;100.00;46635.00;4936709;29;20086;-63
2023/08/05 04:27:17;;;;;;;11.57;7.07;;;;;;;-145.18;100.00;46642.81;4948336;29;20066;-64
2023/08/05 04:29:42;;;;;;;9.23;6.03;;;;;;;-145.18;100.00;46644.78;4936687;29;20404;-63
2023/08/05 04:32:08;;;;;;;9.40;5.87;;;;;;;-145.18;100.00;46636.94;4934741;29;20126;-63
2023/08/05 04:34:37;;;;;;;9.27;6.07;;;;;;;-145.18;100.00;46640.88;4936538;29;20036;-63
2023/08/05 04:37:21;;;;;;;13.97;6.37;;;;;;;-145.18;100.00;46638.91;4936286;29;20035;-63
2023/08/05 04:39:48;;;;;;;10.73;5.83;;;;;;;-145.18;100.00;46638.91;4936058;29;20058;-63
2023/08/05 04:42:13;;;;;;;10.57;6.37;;;;;;;-145.18;100.00;46633.06;4936227;29;20027;-63
2023/08/05 04:44:40;;;;;;;13.17;6.60;;;;;;;-145.18;100.00;46638.91;4936419;29;20048;-63
2023/08/05 04:47:10;;;;;;;12.27;6.00;;;;;;;-145.18;100.00;46638.91;4936578;29;20139;-63
2023/08/05 04:49:35;;;;;;;10.80;6.90;;;;;;;-145.18;100.00;46629.13;4934568;29;20039;-63
2023/08/05 04:52:06;;;;;;;16.53;6.50;;;;;;;-145.18;100.00;46640.88;4932589;29;20023;-63
2023/08/05 04:54:36;;;;;;;13.70;6.27;;;;;;;-145.18;100.00;46635.00;4920313;29;20047;-63
2023/08/05 04:57:01;;;;;;;10.20;6.00;;;;;;;-145.18;100.00;46638.91;4934995;29;20110;-63
2023/08/05 04:59:27;;;;;;;10.33;6.70;;;;;;;-145.18;100.00;46636.94;4922175;29;20036;-63
2023/08/05 05:01:52;;;;;;;12.27;6.97;;;;;;;-145.18;100.00;46638.91;4927032;29;20027;-63
2023/08/05 05:04:17;;;;;;;13.37;6.43;;;;;;;-145.18;100.00;46636.94;4920618;29;20032;-63
2023/08/05 05:06:43;;;;;;;11.90;6.87;;;;;;;-145.18;100.00;46642.81;4929993;29;20481;-63
2023/08/05 05:09:08;;;;;;;12.20;6.70;;;;;;;-145.18;100.00;46636.94;4930613;29;20034;-63
2023/08/05 05:11:33;;;;;;;12.43;6.57;;;;;;;-145.18;100.00;46638.91;4921641;29;20453;-63
2023/08/05 05:13:59;;;;;;;12.03;6.97;;;;;;;-145.18;100.00;46638.91;4924311;29;20043;-63
2023/08/05 05:16:25;;;;;;;14.13;6.87;;;;;;;-145.18;100.00;46636.94;4919274;29;20035;-63
2023/08/05 05:18:50;;;;;;;16.17;7.40;;;;;;;-145.18;100.00;46638.91;4928101;29;20050;-63
2023/08/05 05:21:16;;;;;;;14.33;7.27;;;;;;;-145.18;100.00;46640.88;4935420;29;20066;-63
2023/08/05 05:23:41;;;;;;;17.60;7.23;;;;;;;-145.18;100.00;46638.91;4935665;29;20040;-63
2023/08/05 05:26:07;;;;;;;13.23;7.47;;;;;;;-145.18;100.00;46635.00;4939202;29;20039;-63
2023/08/05 05:28:32;;;;;;;13.37;7.33;;;;;;;-145.18;100.00;46640.88;4925798;29;20480;-64
2023/08/05 05:31:01;;;;;;;15.50;7.60;;;;;;;-145.18;100.00;46638.91;4933912;29;20031;-63
2023/08/05 05:33:27;;;;;;;12.90;7.43;;;;;;;-145.18;100.00;46638.91;4935817;29;20450;-64
2023/08/05 05:35:52;;;;;;;15.50;7.53;;;;;;;-145.18;100.00;46636.94;4935687;29;20111;-63
2023/08/05 05:38:18;;;;;;;15.13;8.17;;;;;;;-145.18;100.00;46638.91;4935338;29;20039;-63
2023/08/05 05:40:44;;;;;;;11.20;6.53;;;;;;;-145.18;100.00;46636.94;4933658;29;20054;-63
2023/08/05 05:43:09;;;;;;;13.93;7.83;;;;;;;-145.18;100.00;46642.81;4928594;29;20122;-63
2023/08/05 05:45:35;;;;;;;15.50;8.63;;;;;;;-145.18;100.00;46636.94;4933604;29;20372;-63
2023/08/05 05:48:00;;;;;;;12.93;8.23;;;;;;;-145.18;100.00;46640.88;4935185;29;20030;-63
2023/08/05 05:50:26;;;;;;;12.90;7.33;;;;;;;-145.18;100.00;46638.91;4935036;29;20535;-63
2023/08/05 05:52:53;;;;;;;13.00;7.63;;;;;;;-145.18;100.00;46642.81;4933396;29;20028;-63
2023/08/05 05:55:19;;;;;;;17.57;7.23;;;;;;;-145.18;100.00;46640.88;4935001;29;20027;-63
2023/08/05 05:57:44;;;;;;;18.00;7.80;;;;;;;-145.18;100.00;46642.81;4935275;29;20043;-63
2023/08/05 06:00:10;;;;;;;14.43;7.77;;;;;;;-145.18;100.00;46635.00;4934665;29;20111;-63
2023/08/05 06:02:36;;;;;;;13.37;7.57;;;;;;;-145.18;100.00;46640.88;4935126;29;20035;-63
2023/08/05 06:05:01;;;;;;;17.77;7.83;;;;;;;-145.18;100.00;46636.94;4934941;29;20026;-63
2023/08/05 06:07:26;;;;;;;17.50;8.67;;;;;;;-145.18;100.00;46636.94;4935236;29;20036;-63
2023/08/05 06:09:52;;;;;;;12.63;8.20;;;;;;;-145.18;100.00;46636.94;4935202;29;20114;-63
2023/08/05 06:12:18;;;;;;;13.83;8.70;;;;;;;-145.18;100.00;46636.94;4935113;29;20046;-63
2023/08/05 06:14:43;;;;;;;16.90;8.43;;;;;;;-145.18;100.00;46638.91;4933684;29;20028;-63
2023/08/05 06:17:09;;;;;;;16.57;7.97;;;;;;;-145.18;100.00;46636.94;4918123;29;20110;-63
2023/08/05 06:19:34;;;;;;;14.60;8.40;;;;;;;-145.18;100.00;46636.94;4925017;29;20035;-63
2023/08/05 06:22:00;;;;;;;14.07;8.67;;;;;;;-145.18;100.00;46636.94;4922247;29;20039;-63
2023/08/05 06:24:25;;;;;;;16.63;8.83;;;;;;;-145.18;100.00;46636.94;4923837;29;20040;-63
2023/08/05 06:26:50;;;;;;;13.17;8.73;;;;;;;-145.18;100.00;46635.00;4935889;29;20034;-63
2023/08/05 06:29:16;;;;;;;16.97;9.50;;;;;;;-145.18;100.00;46631.09;4936947;28;20472;-63
2023/08/05 06:31:41;;;;;;;15.57;9.20;;;;;;;-145.18;100.00;46631.09;4934385;29;20129;-63
2023/08/05 06:34:06;;;;;;;17.33;9.53;;;;;;;-145.18;100.00;46627.19;4934617;29;20371;-63
2023/08/05 06:36:32;;;;;;;16.40;9.70;;;;;;;-145.18;100.00;46629.13;4934770;29;20036;-63
2023/08/05 06:38:57;;;;;;;17.23;9.77;;;;;;;-145.18;100.00;46633.06;4936175;29;20035;-63
2023/08/05 06:41:23;;;;;;;18.30;10.27;;;;;;;-145.18;100.00;46631.09;4938527;29;20042;-63
2023/08/05 06:43:50;;;;;;;22.00;10.03;;;;;;;-145.18;100.00;46633.06;4927935;29;20031;-63
2023/08/05 06:46:15;;;;;;;17.50;9.57;;;;;;;-145.18;100.00;46633.06;4929387;29;20027;-63
2023/08/05 06:48:41;;;;;;;16.20;10.20;;;;;;;-145.18;100.00;46629.13;4928772;29;20020;-63
2023/08/05 06:51:06;;;;;;;15.07;10.23;;;;;;;-145.18;100.00;46633.06;4938135;29;20372;-63
2023/08/05 06:53:33;;;;;;;17.07;10.13;;;;;;;-145.18;100.00;46638.91;4936842;29;20023;-63
2023/08/05 06:56:03;;;;;;;17.00;10.37;;;;;;;-145.18;100.00;46635.00;4938772;29;20076;-63
2023/08/05 06:58:28;;;;;;;19.67;10.87;;;;;;;-145.18;100.00;46633.06;4938286;29;20019;-63
2023/08/05 07:00:54;;;;;;;16.60;10.07;;;;;;;-145.18;100.00;46635.00;4938545;29;20445;-63
2023/08/05 07:03:19;;;;;;;18.57;10.73;;;;;;;-145.18;100.00;46635.00;4937973;29;20387;-63
2023/08/05 07:05:45;;;;;;;13.50;9.90;;;;;;;-145.18;100.00;46635.00;4938235;29;20066;-63
2023/08/05 07:08:10;;;;;;;15.10;10.43;;;;;;;-145.18;100.00;46633.06;4937947;29;20555;-63
2023/08/05 07:10:36;;;;;;;13.83;10.00;;;;;;;-145.18;100.00;46636.94;4938186;29;20123;-63
2023/08/05 07:13:05;;;;;;;15.27;9.80;;;;;;;-145.18;100.00;46636.94;4937200;29;20032;-63
2023/08/05 07:15:31;;;;;;;15.53;9.83;;;;;;;-145.18;100.00;46640.88;4937853;29;20028;-63
2023/08/05 07:17:56;;;;;;;14.53;9.47;;;;;;;-145.18;100.00;46642.81;4937471;29;20380;-63
2023/08/05 07:20:22;;;;;;;14.37;9.93;;;;;;;-145.18;100.00;46648.69;4937556;29;20111;-63
2023/08/05 07:22:47;;;;;;;14.20;8.77;;;;;;;-145.18;100.00;46644.78;4937246;29;20035;-63
2023/08/05 07:25:13;;;;;;;12.97;9.30;;;;;;;-145.18;100.00;46650.63;4937694;29;20039;-63
2023/08/05 07:27:38;;;;;;;12.63;8.53;;;;;;;-145.18;100.00;46656.50;4937329;29;20477;-63
2023/08/05 07:30:04;;;;;;;10.90;7.93;;;;;;;-145.18;100.00;46650.63;4937402;29;20023;-63
2023/08/05 07:32:30;;;;;;;10.17;7.43;;;;;;;-145.18;100.00;46656.50;4936960;29;20042;-63
2023/08/05 07:34:56;;;;;;;11.93;7.90;;;;;;;-145.18;100.00;46664.31;4937769;29;20043;-63
2023/08/05 07:37:21;;;;;;;14.13;8.37;;;;;;;-145.18;100.00;46668.22;4936260;29;20038;-64
2023/08/05 07:39:48;;;;;;;10.40;7.83;;;;;;;-145.18;100.00;46668.22;4937070;29;20060;-63
2023/08/05 07:42:18;;;;;;;11.63;7.80;;;;;;;-145.18;100.00;46666.25;4929854;29;20115;-63
2023/08/05 07:44:46;;;;;;;11.17;8.17;;;;;;;-145.18;100.00;46668.22;4937636;29;20513;-63
2023/08/05 07:47:12;;;;;;;12.50;8.00;;;;;;;-145.18;100.00;46670.16;4937084;29;20059;-63
2023/08/05 07:49:37;;;;;;;13.50;9.23;;;;;;;-145.18;100.00;46670.16;4935983;29;20028;-64
2023/08/05 07:52:06;;;;;;;13.93;8.50;;;;;;;-145.18;100.00;46668.22;4930504;29;20036;-63
2023/08/05 07:54:32;;;;;;;17.27;8.67;;;;;;;-145.18;100.00;46670.16;4929871;29;20032;-63
2023/08/05 07:56:58;;;;;;;10.93;7.93;;;;;;;-145.18;100.00;46668.22;4937121;29;20398;-63
2023/08/05 07:59:25;;;;;;;14.70;9.57;;;;;;;-145.18;100.00;46672.13;4928953;29;20051;-63
2023/08/05 08:01:52;;;;;;;16.83;8.40;;;;;;;-145.18;100.00;46668.22;4935563;29;20083;-63
2023/08/05 08:04:18;;;;;;;14.90;9.20;;;;;;;-145.18;100.00;46668.22;4937080;29;20035;-63
2023/08/05 08:06:45;;;;;;;16.30;10.43;;;;;;;-145.18;100.00;46668.22;4920657;29;20547;-63
2023/08/05 08:09:11;;;;;;;14.10;9.17;;;;;;;-145.18;100.00;46670.16;4902326;29;20058;-63
2023/08/05 08:11:36;;;;;;;15.30;9.63;;;;;;;-145.18;100.00;46672.13;4923757;29;20452;-63
2023/08/05 08:14:04;;;;;;;14.47;8.57;;;;;;;-145.18;100.00;46672.13;4925654;29;20066;-63
2023/08/05 08:16:30;;;;;;;10.63;8.43;;;;;;;-145.18;100.00;46672.13;4921074;29;20079;-63
2023/08/05 08:18:56;;;;;;;15.23;8.03;;;;;;;-145.18;100.00;46674.06;4943593;29;20189;-63
2023/08/05 08:21:21;;;;;;;10.63;7.63;;;;;;;-145.18;100.00;46674.06;4936319;29;20075;-63
2023/08/05 08:23:46;;;;;;;15.50;8.20;;;;;;;-145.18;100.00;46674.06;4935501;29;20050;-63
2023/08/05 08:26:12;;;;;;;11.23;7.10;;;;;;;-145.18;100.00;46674.06;4940466;29;20033;-63
2023/08/05 08:28:37;;;;;;;9.97;6.63;;;;;;;-145.18;100.00;46672.13;4943075;29;20123;-63
2023/08/05 08:31:03;;;;;;;13.97;7.40;;;;;;;-145.18;100.00;46677.97;4936515;29;20031;-63
2023/08/05 08:33:28;;;;;;;13.37;6.50;;;;;;;-145.18;100.00;46681.88;4936365;29;20035;-63
2023/08/05 08:35:54;;;;;;;9.37;5.83;;;;;;;-145.18;100.00;46677.97;4936632;29;20023;-64
2023/08/05 08:38:22;;;;;;;10.30;6.57;;;;;;;-145.18;100.00;46681.88;4936929;29;20466;-63
2023/08/05 08:40:49;;;;;;;12.07;5.90;;;;;;;-145.18;100.00;46681.88;4935190;29;20471;-63
2023/08/05 08:43:18;;;;;;;7.50;4.93;;;;;;;-145.18;100.00;46687.75;4936605;29;20043;-64
2023/08/05 08:45:45;;;;;;;7.83;5.10;;;;;;;-145.18;100.00;46687.75;4934305;29;20031;-63
2023/08/05 08:48:11;;;;;;;8.20;5.13;;;;;;;-145.18;100.00;46687.75;4936194;29;20036;-63
2023/08/05 08:50:38;;;;;;;7.83;5.27;;;;;;;-145.18;100.00;46689.69;4936343;29;20063;-64
2023/08/05 08:53:08;;;;;;;10.23;5.10;;;;;;;-145.18;100.00;46695.56;4936308;29;20027;-63
2023/08/05 08:55:35;;;;;;;7.17;5.00;;;;;;;-145.18;100.00;46693.59;4936081;29;20031;-63
2023/08/05 08:58:00;;;;;;;9.77;5.30;;;;;;;-145.18;100.00;46693.59;4935762;29;20031;-63
2023/08/05 09:00:27;;;;;;;11.33;5.83;;;;;;;-145.18;100.00;46689.69;4934856;29;20042;-63
2023/08/05 09:02:53;;;;;;;8.80;5.23;;;;;;;-145.18;100.00;46697.50;4935888;29;20391;-63
2023/08/05 09:05:18;;;;;;;7.70;4.30;;;;;;;-145.18;100.00;46699.47;4936375;29;20027;-64
2023/08/05 09:07:44;;;;;;;7.97;4.63;;;;;;;-145.18;100.00;46695.56;4935986;29;20051;-64
2023/08/05 09:10:10;;;;;;;9.43;5.13;;;;;;;-145.18;100.00;46697.50;4935935;29;20051;-63
2023/08/05 09:12:36;;;;;;;10.67;5.10;;;;;;;-145.18;100.00;46697.50;4935835;29;20040;-63
2023/08/05 09:15:01;;;;;;;11.30;4.77;;;;;;;-145.18;100.00;46699.47;4935957;29;20487;-63
2023/08/05 09:17:36;;;;;;;10.10;5.30;;;;;;;-145.18;100.00;46693.59;4935614;29;20464;-63
2023/08/05 09:20:16;;;;;;;9.77;5.43;;;;;;;-145.18;100.00;46695.56;4935623;29;20024;-63
2023/08/05 09:22:53;;;;;;;8.30;5.13;;;;;;;-145.18;100.00;46689.69;4935475;29;20503;-64
2023/08/05 09:25:18;;;;;;;8.60;5.80;;;;;;;-145.18;100.00;46685.78;4935923;29;20040;-64
2023/08/05 09:27:47;;;;;;;11.33;6.00;;;;;;;-145.18;100.00;46691.66;4946895;29;20461;-63
2023/08/05 09:30:22;;;;;;;11.90;5.73;;;;;;;-145.18;100.00;46691.66;4935750;29;20387;-63
2023/08/05 09:32:48;;;;;;;10.85;5.80;;;;;;;-145.18;100.00;46693.59;4935213;29;20712;-63
2023/08/05 09:35:15;;;;;;;10.90;6.13;;;;;;;-145.18;100.00;46695.56;4935545;29;20035;-64
2023/08/05 09:37:51;;;;;;;9.33;6.30;;;;;;;-145.18;100.00;46695.56;4935011;29;20082;-63
2023/08/05 09:40:24;;;;;;;8.27;6.20;;;;;;;-145.18;100.00;46699.47;4935305;29;20084;-63
2023/08/05 09:42:51;;;;;;;10.17;6.63;;;;;;;-145.18;100.00;46693.59;4935489;29;20027;-63
2023/08/05 09:45:18;;;;;;;7.53;5.30;;;;;;;-145.18;100.00;46689.69;4935535;29;20031;-63
2023/08/05 09:47:50;;;;;;;12.60;5.33;;;;;;;-145.18;100.00;46693.59;4922683;29;20038;-63
2023/08/05 09:50:17;;;;;;;9.80;5.87;;;;;;;-145.18;100.00;46691.66;4927453;29;20467;-63
2023/08/05 09:52:49;;;;;;;9.23;6.00;;;;;;;-145.18;100.00;46689.69;4927807;29;20027;-63
2023/08/05 09:55:21;;;;;;;10.10;5.33;;;;;;;-145.18;100.00;46683.84;4929935;29;20044;-63
2023/08/05 09:57:47;;;;;;;9.63;5.33;;;;;;;-145.18;100.00;46685.78;4923788;29;20043;-63
2023/08/05 10:00:14;;;;;;;9.47;5.40;;;;;;;-145.18;100.00;46681.88;4934856;29;20039;-63
2023/08/05 10:02:45;;;;;;;7.10;4.40;;;;;;;-145.18;100.00;46681.88;4924603;29;20475;-63
2023/08/05 10:05:12;;;;;;;9.17;4.20;;;;;;;-145.18;100.00;46687.75;4934743;29;20042;-63
2023/08/05 10:07:39;;;;;;;9.00;4.80;;;;;;;-145.18;100.00;46687.75;4935016;29;20111;-64
2023/08/05 10:10:19;;;;;;;5.77;4.10;;;;;;;-145.18;100.00;46693.59;4932392;29;20028;-63
2023/08/05 10:13:08;;;;;;;6.67;4.03;;;;;;;-145.18;100.00;46697.50;4934432;29;20038;-63
2023/08/05 10:15:38;;;;;;;6.23;3.57;;;;;;;-145.18;100.00;46693.59;4926730;29;20036;-63
2023/08/05 10:18:08;;;;;;;9.17;4.13;;;;;;;-145.18;100.00;46693.59;4934279;29;20791;-63
2023/08/05 10:20:35;;;;;;;5.77;4.10;;;;;;;-145.18;100.00;46695.56;4934654;29;20070;-63
2023/08/05 10:23:05;;;;;;;6.70;4.30;;;;;;;-145.18;100.00;46693.59;4934524;29;20484;-63
2023/08/05 10:25:42;;;;;;;9.23;4.43;;;;;;;-145.18;100.00;46691.66;4934858;29;20118;-63
2023/08/05 10:28:28;;;;;;;8.93;4.20;;;;;;;-145.18;100.00;46697.50;4934342;29;20521;-63
2023/08/05 10:30:54;;;;;;;;;;;;;;;-145.18;100.00;46693.59;4915998;29;20047;-63
2023/08/05 10:33:20;;;;;;;7.43;4.15;;;;;;;-145.18;100.00;46691.66;4934642;29;19946;-63
2023/08/05 10:35:48;;;;;;;10.53;4.30;;;;;;;-145.18;100.00;46691.66;4934384;29;20039;-65
2023/08/05 10:38:15;;;;;;;5.47;3.87;;;;;;;-145.18;100.00;46695.56;4928997;29;20400;-63
2023/08/05 10:40:43;;;;;;;9.37;4.30;;;;;;;-145.18;100.00;46691.66;4932342;29;20098;-63
2023/08/05 10:43:12;;;;;;;8.60;4.40;;;;;;;-145.18;100.00;46691.66;4934224;29;20520;-63
2023/08/05 10:45:42;;;;;;;8.87;4.60;;;;;;;-145.18;100.00;46695.56;4934624;29;20024;-63
2023/08/05 10:48:09;;;;;;;5.93;3.93;;;;;;;-145.18;100.00;46697.50;4933725;29;20019;-63
2023/08/05 10:50:39;;;;;;;5.03;3.33;;;;;;;-145.18;100.00;46699.47;4934197;29;20034;-63
2023/08/05 10:53:07;;;;;;;8.87;4.07;;;;;;;-145.18;100.00;46697.50;4934042;29;20550;-63
2023/08/05 10:55:44;;;;;;;8.10;4.03;;;;;;;-145.18;100.00;46697.50;4934856;29;20028;-63
2023/08/05 10:58:10;;;;;;;7.47;4.13;;;;;;;-145.18;100.00;46697.50;4933946;29;20060;-63
2023/08/05 11:00:39;;;;;;;7.40;4.33;;;;;;;-145.18;100.00;46693.59;4930381;29;20052;-63
2023/08/05 11:03:43;;;;;;;8.47;3.70;;;;;;;-145.18;100.00;46697.50;4925905;29;20518;-63